Portada
METAR-TAF:

METAR-TAF

Aeroports :

Aeroport de Port Bouet

Abidjan, Costa d'Ivori

latitud: 05-15N, longitud: 003-56W, altitud: 7 m

Observació

L'informe es va fer fa 26 minuts, a les 04:00 UTC
Vent 6 kt del Oest/Sud-Oest
Temperatura 25°C
Humitat 100%
Pressió 1011 hPa
Visibilitat: 8000 m
Escasses núvols a una alçada de 1000 ft
Núvols disperses a una alçada de 4000 ft

METAR: DIAP 290400Z 24006KT 8000 FEW010 SCT040 25/25 Q1011 NOSIG

Hora: 04:26 (04:26 UTC)

Pronòstic

L'informe es va fer fa 4 hores i 42 minuts, a les 23:44 UTC
Pronòstic vàlid del 29 a les 00 UTC al 30 a les 06 UTC
Vent 4 kt del Sud/Sud-Oest
Visibilitat 10 km o més
Núvols disperses a una alçada de 1200 ft
Probabilitat 30% :
Temporalment
l' 29 a les 12 UTC al 29 a les 18 UTC
Visibilitat: 4000 m
Cel ennuvolat a una alçada de 1200 ft
pluja

TAF: DIAP 282344Z 2900/3006 21004KT 9999 SCT012 PROB30 TEMPO 2912/2918 4000 RA BKN012

Observacions i pronòstics meteorològics de més de 4000 aeroports (METAR i TAF).

Les estacions disponibles són els punts grocs i vermells al mapa.

Posi el ratolí al punt desitjat per veure el nom de l'estació.

Feu clic per veure les observacions i els pronòstics meteorològics.

Per canviar el mapa: feu clic els botons verds amb una creu de color negre per apropar; al botó verd amb un guió per allunyar la imatge; o en les fletxes verdes per a mapes adjacents.


METAR-TAF: